createdAt,value
2023-01-22T00:02:28.559Z,10.30
2023-01-22T00:07:30.946Z,10.50
2023-01-22T00:12:33.189Z,10.60
2023-01-22T00:17:35.397Z,10.90
2023-01-22T00:22:37.597Z,10.90
2023-01-22T00:27:41.802Z,11.00
2023-01-22T00:32:46.470Z,10.80
2023-01-22T00:37:48.780Z,10.80
2023-01-22T00:42:51.027Z,10.50
2023-01-22T00:47:53.267Z,10.40
2023-01-22T00:52:55.463Z,10.30
2023-01-22T00:57:57.798Z,10.10
2023-01-22T01:03:19.891Z,10.20
2023-01-22T01:08:23.331Z,10.80
2023-01-22T01:13:26.535Z,10.70
2023-01-22T01:18:29.559Z,10.80
2023-01-22T01:23:31.823Z,10.90
2023-01-22T01:28:36.534Z,10.80
2023-01-22T01:33:39.545Z,10.90
2023-01-22T01:38:42.006Z,10.80
2023-01-22T01:43:44.368Z,10.90
2023-01-22T01:48:48.778Z,10.80
2023-01-22T01:53:51.926Z,10.70
2023-01-22T01:58:59.198Z,10.80
2023-01-22T02:04:01.685Z,10.90
2023-01-22T02:09:04.073Z,11.00
2023-01-22T02:14:11.951Z,11.00
2023-01-22T02:19:14.371Z,11.00
2023-01-22T02:24:17.619Z,11.00
2023-01-22T02:29:19.963Z,11.10
2023-01-22T02:34:24.710Z,11.20
2023-01-22T02:39:27.920Z,11.10
2023-01-22T02:44:30.530Z,11.00
2023-01-22T02:49:33.132Z,10.90
2023-01-22T02:54:36.805Z,11.00
2023-01-22T02:59:39.085Z,11.00
2023-01-22T03:04:46.768Z,11.10
2023-01-22T03:09:49.047Z,11.10
2023-01-22T03:15:11.246Z,11.00
2023-01-22T03:20:33.345Z,11.10
2023-01-22T03:25:36.491Z,10.90
2023-01-22T03:30:39.100Z,11.00
2023-01-22T03:35:43.262Z,11.00
2023-01-22T03:40:50.818Z,11.00
2023-01-22T03:45:54.582Z,10.90
2023-01-22T03:51:04.229Z,11.10
2023-01-22T03:56:11.572Z,11.00
2023-01-22T04:01:20.563Z,11.10
2023-01-22T04:06:24.093Z,11.10
2023-01-22T04:11:26.483Z,11.30
2023-01-22T04:16:29.312Z,11.40
2023-01-22T04:21:40.264Z,11.30
2023-01-22T04:26:45.685Z,11.30
2023-01-22T04:31:50.670Z,11.30
2023-01-22T04:37:03.380Z,11.20
2023-01-22T04:42:11.217Z,11.20
2023-01-22T04:47:13.506Z,11.10
2023-01-22T04:52:17.340Z,11.00
2023-01-22T04:57:19.863Z,11.10
2023-01-22T05:02:24.130Z,11.20
2023-01-22T05:07:27.907Z,11.30
2023-01-22T05:12:30.282Z,11.50
2023-01-22T05:17:32.741Z,11.50
2023-01-22T05:22:35.074Z,11.50
2023-01-22T05:27:38.679Z,11.60
2023-01-22T05:32:47.996Z,11.70
2023-01-22T05:37:51.804Z,11.80
2023-01-22T05:42:55.688Z,11.90
2023-01-22T05:47:58.413Z,11.90
2023-01-22T05:53:10.912Z,11.80
2023-01-22T05:58:13.570Z,11.80
2023-01-22T06:03:19.060Z,11.50
2023-01-22T06:08:26.935Z,11.30
2023-01-22T06:13:30.725Z,11.20
2023-01-22T06:18:39.178Z,11.10
2023-01-22T06:23:41.499Z,11.10
2023-01-22T06:28:44.670Z,10.90
2023-01-22T06:33:46.996Z,11.00
2023-01-22T06:38:51.567Z,10.90
2023-01-22T06:44:07.804Z,11.20
2023-01-22T06:49:11.144Z,11.30
2023-01-22T06:54:15.226Z,11.30
2023-01-22T06:59:18.592Z,11.10
2023-01-22T07:04:20.850Z,10.90
2023-01-22T07:09:23.202Z,11.10
2023-01-22T07:14:36.616Z,11.00
2023-01-22T07:19:39.520Z,10.90
2023-01-22T07:24:42.049Z,10.90
2023-01-22T07:29:44.301Z,11.00
2023-01-22T07:34:46.504Z,11.10
2023-01-22T07:39:48.750Z,11.00
2023-01-22T07:44:50.959Z,11.00
2023-01-22T07:49:53.194Z,11.30
2023-01-22T07:54:55.487Z,11.60
2023-01-22T07:59:57.644Z,11.60
2023-01-22T08:04:59.850Z,12.00
2023-01-22T08:10:02.215Z,11.90
2023-01-22T08:15:05.139Z,11.60
2023-01-22T08:20:08.500Z,11.70
2023-01-22T08:25:10.918Z,12.20
2023-01-22T08:30:13.511Z,12.20
2023-01-22T08:35:15.929Z,12.10
2023-01-22T08:40:18.693Z,11.80
2023-01-22T08:45:21.670Z,11.50
2023-01-22T08:50:23.958Z,11.50
2023-01-22T08:55:27.905Z,12.10
2023-01-22T09:00:30.248Z,13.40
2023-01-22T09:05:32.451Z,14.10
2023-01-22T09:10:35.048Z,14.20
2023-01-22T09:15:37.651Z,14.10
2023-01-22T09:20:39.887Z,13.20
2023-01-22T09:25:42.393Z,12.80
2023-01-22T09:30:44.823Z,12.40
2023-01-22T09:35:47.159Z,12.10
2023-01-22T09:40:54.926Z,11.80
2023-01-22T09:46:00.805Z,11.60
2023-01-22T09:51:04.676Z,11.40
2023-01-22T09:56:13.793Z,11.30
2023-01-22T10:01:18.635Z,11.40
2023-01-22T10:06:23.037Z,11.50
2023-01-22T10:11:25.896Z,11.50
2023-01-22T10:16:28.747Z,10.90
2023-01-22T10:21:41.930Z,10.90
2023-01-22T10:32:00.229Z,10.70
2023-01-22T10:37:13.565Z,10.60
2023-01-22T10:47:28.100Z,10.60
2023-01-22T10:52:53.839Z,10.80
2023-01-22T10:58:03.117Z,10.90
2023-01-22T11:03:23.585Z,10.80
2023-01-22T11:08:30.995Z,10.90
2023-01-22T11:24:04.882Z,11.20
2023-01-22T11:29:35.591Z,10.90
2023-01-22T11:50:31.067Z,10.50
2023-01-22T12:01:12.733Z,10.50
2023-01-22T12:12:01.459Z,10.00
2023-01-22T12:22:46.924Z,10.00
2023-01-22T12:33:03.147Z,9.50
2023-01-22T12:38:19.781Z,9.50
2023-01-22T12:43:32.995Z,9.50
2023-01-22T12:53:45.974Z,9.50
2023-01-22T12:58:56.793Z,9.60
2023-01-22T13:04:05.310Z,9.60
2023-01-22T13:09:25.401Z,9.20
2023-01-22T13:14:31.542Z,9.30
2023-01-22T13:19:42.376Z,9.00
2023-01-22T13:24:55.427Z,9.10
2023-01-22T13:30:20.894Z,9.20
2023-01-22T13:35:23.320Z,9.10
2023-01-22T13:40:30.272Z,9.20
2023-01-22T13:45:34.187Z,9.00
2023-01-22T13:50:37.135Z,9.00
2023-01-22T13:55:39.403Z,9.20
2023-01-22T14:00:52.593Z,9.30
2023-01-22T14:06:13.149Z,9.30
2023-01-22T14:11:16.056Z,9.30
2023-01-22T14:16:18.763Z,9.20
2023-01-22T14:21:21.008Z,8.90
2023-01-22T14:26:23.263Z,8.80
2023-01-22T14:31:25.700Z,9.20
2023-01-22T14:48:54.475Z,9.20
2023-01-22T14:53:59.081Z,9.70
2023-01-22T14:59:01.439Z,9.50
2023-01-22T15:04:05.263Z,9.40
2023-01-22T15:09:07.455Z,9.00
2023-01-22T15:14:09.813Z,9.00
2023-01-22T15:19:12.023Z,8.90
2023-01-22T15:24:14.296Z,9.00
2023-01-22T15:29:16.556Z,9.00
2023-01-22T15:34:19.507Z,9.00
2023-01-22T15:39:21.736Z,9.00
2023-01-22T15:44:23.992Z,8.90
2023-01-22T15:49:26.499Z,8.80
2023-01-22T15:54:29.730Z,8.60
2023-01-22T15:59:33.577Z,8.40
2023-01-22T16:04:36.179Z,8.40
2023-01-22T16:09:38.969Z,8.40
2023-01-22T16:14:41.594Z,8.50
2023-01-22T16:19:44.201Z,8.50
2023-01-22T16:24:46.519Z,8.30
2023-01-22T16:29:48.764Z,8.30
2023-01-22T16:34:51.243Z,8.10
2023-01-22T16:39:53.652Z,8.20
2023-01-22T16:44:55.887Z,8.30
2023-01-22T16:49:58.166Z,8.20
2023-01-22T16:55:00.407Z,8.30
2023-01-22T17:00:03.286Z,8.20
2023-01-22T17:05:08.761Z,8.10
2023-01-22T17:10:11.557Z,8.00
2023-01-22T17:15:13.786Z,8.00
2023-01-22T17:20:16.179Z,8.10
2023-01-22T17:25:18.638Z,8.10
2023-01-22T17:30:21.946Z,8.20
2023-01-22T17:35:24.172Z,8.10
2023-01-22T17:40:26.731Z,8.20
2023-01-22T17:45:29.347Z,8.10
2023-01-22T17:50:31.687Z,8.10
2023-01-22T17:55:34.100Z,7.90
2023-01-22T18:00:37.898Z,7.90
2023-01-22T18:05:40.174Z,7.80
2023-01-22T18:10:42.409Z,7.80
2023-01-22T18:15:46.913Z,7.80
2023-01-22T18:20:49.344Z,7.60
2023-01-22T18:25:56.433Z,7.70
2023-01-22T18:31:08.899Z,7.60
2023-01-22T18:36:14.710Z,7.40
2023-01-22T18:41:21.188Z,7.20
2023-01-22T18:46:25.302Z,7.10
2023-01-22T18:51:28.726Z,7.10
2023-01-22T18:56:31.746Z,7.20
2023-01-22T19:01:38.158Z,7.30
2023-01-22T19:06:44.318Z,7.20
2023-01-22T19:11:48.593Z,7.20
2023-01-22T19:16:53.466Z,7.10
2023-01-22T19:21:56.403Z,7.10
2023-01-22T19:26:59.044Z,7.00
2023-01-22T19:32:01.541Z,7.20
2023-01-22T19:37:06.564Z,7.30
2023-01-22T19:42:08.781Z,7.20
2023-01-22T19:47:11.339Z,7.30
2023-01-22T19:52:13.609Z,6.90
2023-01-22T19:57:16.106Z,7.00
2023-01-22T20:02:20.915Z,6.90
2023-01-22T20:07:25.231Z,6.80
2023-01-22T20:12:27.545Z,6.90
2023-01-22T20:17:29.753Z,7.00
2023-01-22T20:22:32.443Z,7.00
2023-01-22T20:27:35.243Z,7.10
2023-01-22T20:32:37.480Z,6.90
2023-01-22T20:37:39.690Z,6.80
2023-01-22T20:42:41.930Z,6.70
2023-01-22T20:47:45.062Z,6.70
2023-01-22T20:52:47.276Z,6.60
2023-01-22T20:57:49.539Z,6.60
2023-01-22T21:02:52.026Z,6.60
2023-01-22T21:07:54.324Z,6.90
2023-01-22T21:12:56.559Z,6.90
2023-01-22T21:17:59.283Z,6.90
2023-01-22T21:23:02.455Z,6.80
2023-01-22T21:28:05.052Z,6.80
2023-01-22T21:33:07.410Z,6.80
2023-01-22T21:38:09.835Z,6.80
2023-01-22T21:43:35.361Z,6.80
2023-01-22T21:48:37.656Z,6.80
2023-01-22T21:53:39.939Z,6.70
2023-01-22T21:58:45.363Z,6.90
2023-01-22T22:03:47.675Z,6.60
2023-01-22T22:08:49.889Z,6.60
2023-01-22T22:13:52.894Z,6.50
2023-01-22T22:18:56.648Z,7.00
2023-01-22T22:23:59.002Z,7.10
2023-01-22T22:29:01.481Z,7.00
2023-01-22T22:34:04.042Z,6.90
2023-01-22T22:39:06.713Z,6.80
2023-01-22T22:44:10.888Z,6.70
2023-01-22T22:49:14.025Z,6.70
2023-01-22T22:54:18.598Z,6.70
2023-01-22T22:59:21.090Z,6.80
2023-01-22T23:04:23.612Z,6.70
2023-01-22T23:09:25.969Z,6.70
2023-01-22T23:14:28.211Z,6.70
2023-01-22T23:19:30.602Z,7.00
2023-01-22T23:24:32.900Z,7.00
2023-01-22T23:29:35.142Z,6.70
2023-01-22T23:34:37.683Z,6.60
2023-01-22T23:39:40.059Z,6.50
2023-01-22T23:44:42.349Z,6.60
2023-01-22T23:49:44.551Z,6.80
2023-01-22T23:54:46.839Z,7.20
2023-01-22T23:59:50.044Z,7.40
